sensor_id;sensor_type;location;lat;lon;timestamp;P1;durP1;ratioP1;P2;durP2;ratioP2
59458;SDS011;45269;43.568;22.244;2023-04-06T00:01:36;41.15;;;36.78;;
59458;SDS011;45269;43.568;22.244;2023-04-06T00:04:01;49.20;;;43.75;;
59458;SDS011;45269;43.568;22.244;2023-04-06T00:06:27;40.47;;;36.28;;
59458;SDS011;45269;43.568;22.244;2023-04-06T00:08:52;56.35;;;47.78;;
59458;SDS011;45269;43.568;22.244;2023-04-06T00:11:17;58.65;;;52.05;;
59458;SDS011;45269;43.568;22.244;2023-04-06T00:13:43;41.50;;;37.22;;
59458;SDS011;45269;43.568;22.244;2023-04-06T00:16:08;40.97;;;36.60;;
59458;SDS011;45269;43.568;22.244;2023-04-06T00:18:34;71.15;;;58.80;;
59458;SDS011;45269;43.568;22.244;2023-04-06T00:20:59;86.03;;;72.38;;
59458;SDS011;45269;43.568;22.244;2023-04-06T00:23:25;50.33;;;45.00;;
59458;SDS011;45269;43.568;22.244;2023-04-06T00:25:50;45.83;;;41.22;;
59458;SDS011;45269;43.568;22.244;2023-04-06T00:28:15;101.78;;;82.25;;
59458;SDS011;45269;43.568;22.244;2023-04-06T00:30:41;49.35;;;44.60;;
59458;SDS011;45269;43.568;22.244;2023-04-06T00:33:06;46.53;;;41.70;;
59458;SDS011;45269;43.568;22.244;2023-04-06T00:35:31;49.35;;;44.40;;
59458;SDS011;45269;43.568;22.244;2023-04-06T00:37:57;54.28;;;48.67;;
59458;SDS011;45269;43.568;22.244;2023-04-06T00:40:22;43.83;;;39.63;;
59458;SDS011;45269;43.568;22.244;2023-04-06T00:42:47;51.85;;;46.85;;
59458;SDS011;45269;43.568;22.244;2023-04-06T00:45:13;60.65;;;54.53;;
59458;SDS011;45269;43.568;22.244;2023-04-06T00:47:38;70.43;;;62.83;;
59458;SDS011;45269;43.568;22.244;2023-04-06T00:50:04;60.60;;;51.72;;
59458;SDS011;45269;43.568;22.244;2023-04-06T00:52:29;81.80;;;69.00;;
59458;SDS011;45269;43.568;22.244;2023-04-06T00:54:55;59.10;;;52.28;;
59458;SDS011;45269;43.568;22.244;2023-04-06T00:57:20;58.85;;;52.47;;
59458;SDS011;45269;43.568;22.244;2023-04-06T00:59:45;65.57;;;57.75;;
59458;SDS011;45269;43.568;22.244;2023-04-06T01:02:11;64.00;;;57.05;;
59458;SDS011;45269;43.568;22.244;2023-04-06T01:04:36;76.95;;;65.60;;
59458;SDS011;45269;43.568;22.244;2023-04-06T01:07:02;59.88;;;53.28;;
59458;SDS011;45269;43.568;22.244;2023-04-06T01:09:27;47.13;;;42.42;;
59458;SDS011;45269;43.568;22.244;2023-04-06T01:11:54;46.70;;;41.75;;
59458;SDS011;45269;43.568;22.244;2023-04-06T01:14:20;49.13;;;43.92;;
59458;SDS011;45269;43.568;22.244;2023-04-06T01:16:46;55.50;;;49.42;;
59458;SDS011;45269;43.568;22.244;2023-04-06T01:19:11;57.92;;;49.30;;
59458;SDS011;45269;43.568;22.244;2023-04-06T01:21:37;42.72;;;38.22;;
59458;SDS011;45269;43.568;22.244;2023-04-06T01:24:02;43.45;;;39.08;;
59458;SDS011;45269;43.568;22.244;2023-04-06T01:26:28;37.03;;;33.35;;
59458;SDS011;45269;43.568;22.244;2023-04-06T01:28:54;45.03;;;40.08;;
59458;SDS011;45269;43.568;22.244;2023-04-06T01:31:20;35.92;;;32.53;;
59458;SDS011;45269;43.568;22.244;2023-04-06T01:33:45;35.03;;;31.52;;
59458;SDS011;45269;43.568;22.244;2023-04-06T01:36:11;34.75;;;31.38;;
59458;SDS011;45269;43.568;22.244;2023-04-06T01:38:36;36.38;;;32.70;;
59458;SDS011;45269;43.568;22.244;2023-04-06T01:41:01;32.50;;;29.27;;
59458;SDS011;45269;43.568;22.244;2023-04-06T01:43:26;53.13;;;43.20;;
59458;SDS011;45269;43.568;22.244;2023-04-06T01:45:52;36.72;;;32.97;;
59458;SDS011;45269;43.568;22.244;2023-04-06T01:48:18;36.47;;;32.60;;
59458;SDS011;45269;43.568;22.244;2023-04-06T01:50:43;56.88;;;46.85;;
59458;SDS011;45269;43.568;22.244;2023-04-06T01:53:08;36.35;;;32.85;;
59458;SDS011;45269;43.568;22.244;2023-04-06T01:55:34;95.15;;;70.53;;
59458;SDS011;45269;43.568;22.244;2023-04-06T01:57:59;58.10;;;51.40;;
59458;SDS011;45269;43.568;22.244;2023-04-06T02:00:25;60.03;;;51.15;;
59458;SDS011;45269;43.568;22.244;2023-04-06T02:02:50;40.22;;;35.40;;
59458;SDS011;45269;43.568;22.244;2023-04-06T02:05:15;37.35;;;33.55;;
59458;SDS011;45269;43.568;22.244;2023-04-06T02:07:41;32.05;;;29.05;;
59458;SDS011;45269;43.568;22.244;2023-04-06T02:10:11;41.25;;;37.03;;
59458;SDS011;45269;43.568;22.244;2023-04-06T02:12:36;44.08;;;39.55;;
59458;SDS011;45269;43.568;22.244;2023-04-06T02:15:01;34.63;;;31.27;;
59458;SDS011;45269;43.568;22.244;2023-04-06T02:17:27;36.80;;;33.05;;
59458;SDS011;45269;43.568;22.244;2023-04-06T02:19:52;35.13;;;31.70;;
59458;SDS011;45269;43.568;22.244;2023-04-06T02:22:17;35.58;;;31.92;;
59458;SDS011;45269;43.568;22.244;2023-04-06T02:24:43;31.42;;;28.30;;
59458;SDS011;45269;43.568;22.244;2023-04-06T02:27:08;28.85;;;25.80;;
59458;SDS011;45269;43.568;22.244;2023-04-06T02:29:33;31.40;;;28.15;;
59458;SDS011;45269;43.568;22.244;2023-04-06T02:31:58;34.00;;;30.40;;
59458;SDS011;45269;43.568;22.244;2023-04-06T02:34:24;30.35;;;27.05;;
59458;SDS011;45269;43.568;22.244;2023-04-06T02:36:50;35.90;;;32.20;;
59458;SDS011;45269;43.568;22.244;2023-04-06T02:39:15;30.48;;;27.48;;
59458;SDS011;45269;43.568;22.244;2023-04-06T02:41:40;25.88;;;23.33;;
59458;SDS011;45269;43.568;22.244;2023-04-06T02:44:07;25.50;;;23.00;;
59458;SDS011;45269;43.568;22.244;2023-04-06T02:46:32;24.10;;;21.70;;
59458;SDS011;45269;43.568;22.244;2023-04-06T02:48:57;27.38;;;24.75;;
59458;SDS011;45269;43.568;22.244;2023-04-06T02:51:25;26.17;;;23.42;;
59458;SDS011;45269;43.568;22.244;2023-04-06T02:53:50;26.02;;;23.30;;
59458;SDS011;45269;43.568;22.244;2023-04-06T02:56:16;25.02;;;22.17;;
59458;SDS011;45269;43.568;22.244;2023-04-06T02:58:41;25.92;;;23.08;;
59458;SDS011;45269;43.568;22.244;2023-04-06T03:01:06;54.53;;;41.10;;
59458;SDS011;45269;43.568;22.244;2023-04-06T03:03:32;41.10;;;34.33;;
59458;SDS011;45269;43.568;22.244;2023-04-06T03:05:57;51.47;;;39.22;;
59458;SDS011;45269;43.568;22.244;2023-04-06T03:08:24;35.67;;;31.73;;
59458;SDS011;45269;43.568;22.244;2023-04-06T03:10:50;44.47;;;36.35;;
59458;SDS011;45269;43.568;22.244;2023-04-06T03:13:15;42.28;;;36.35;;
59458;SDS011;45269;43.568;22.244;2023-04-06T03:15:41;42.05;;;35.40;;
59458;SDS011;45269;43.568;22.244;2023-04-06T03:18:06;36.53;;;32.53;;
59458;SDS011;45269;43.568;22.244;2023-04-06T03:20:31;50.70;;;45.15;;
59458;SDS011;45269;43.568;22.244;2023-04-06T03:22:56;45.63;;;38.50;;
59458;SDS011;45269;43.568;22.244;2023-04-06T03:25:22;44.10;;;38.35;;
59458;SDS011;45269;43.568;22.244;2023-04-06T03:27:47;50.70;;;42.55;;
59458;SDS011;45269;43.568;22.244;2023-04-06T03:30:12;46.30;;;38.13;;
59458;SDS011;45269;43.568;22.244;2023-04-06T03:32:38;40.38;;;35.40;;
59458;SDS011;45269;43.568;22.244;2023-04-06T03:35:03;53.33;;;45.85;;
59458;SDS011;45269;43.568;22.244;2023-04-06T03:37:29;38.13;;;34.05;;
59458;SDS011;45269;43.568;22.244;2023-04-06T03:39:54;34.38;;;30.77;;
59458;SDS011;45269;43.568;22.244;2023-04-06T03:42:20;27.88;;;24.98;;
59458;SDS011;45269;43.568;22.244;2023-04-06T03:44:45;27.13;;;24.35;;
59458;SDS011;45269;43.568;22.244;2023-04-06T03:47:10;28.08;;;25.27;;
59458;SDS011;45269;43.568;22.244;2023-04-06T03:49:35;29.17;;;26.25;;
59458;SDS011;45269;43.568;22.244;2023-04-06T03:52:01;31.80;;;28.38;;
59458;SDS011;45269;43.568;22.244;2023-04-06T03:54:26;32.67;;;29.20;;
59458;SDS011;45269;43.568;22.244;2023-04-06T03:56:52;29.60;;;26.60;;
59458;SDS011;45269;43.568;22.244;2023-04-06T03:59:17;29.13;;;26.08;;
59458;SDS011;45269;43.568;22.244;2023-04-06T04:01:42;28.60;;;25.55;;
59458;SDS011;45269;43.568;22.244;2023-04-06T04:04:08;29.00;;;26.08;;
59458;SDS011;45269;43.568;22.244;2023-04-06T04:06:33;29.55;;;26.40;;
59458;SDS011;45269;43.568;22.244;2023-04-06T04:08:58;32.20;;;27.85;;
59458;SDS011;45269;43.568;22.244;2023-04-06T04:11:23;28.27;;;25.25;;
59458;SDS011;45269;43.568;22.244;2023-04-06T04:13:49;29.75;;;26.73;;
59458;SDS011;45269;43.568;22.244;2023-04-06T04:16:14;29.40;;;26.13;;
59458;SDS011;45269;43.568;22.244;2023-04-06T04:18:39;30.98;;;27.88;;
59458;SDS011;45269;43.568;22.244;2023-04-06T04:21:05;33.00;;;28.08;;
59458;SDS011;45269;43.568;22.244;2023-04-06T04:23:30;29.10;;;26.00;;
59458;SDS011;45269;43.568;22.244;2023-04-06T04:25:55;27.85;;;25.05;;
59458;SDS011;45269;43.568;22.244;2023-04-06T04:28:21;29.73;;;26.58;;
59458;SDS011;45269;43.568;22.244;2023-04-06T04:30:46;30.23;;;27.08;;
59458;SDS011;45269;43.568;22.244;2023-04-06T04:33:11;34.72;;;29.23;;
59458;SDS011;45269;43.568;22.244;2023-04-06T04:35:37;31.33;;;27.95;;
59458;SDS011;45269;43.568;22.244;2023-04-06T04:38:02;34.10;;;30.40;;
59458;SDS011;45269;43.568;22.244;2023-04-06T04:40:27;34.92;;;31.30;;
59458;SDS011;45269;43.568;22.244;2023-04-06T04:42:52;30.58;;;26.25;;
59458;SDS011;45269;43.568;22.244;2023-04-06T04:45:18;31.75;;;28.48;;
59458;SDS011;45269;43.568;22.244;2023-04-06T04:47:43;32.97;;;29.70;;
59458;SDS011;45269;43.568;22.244;2023-04-06T04:50:09;32.42;;;29.13;;
59458;SDS011;45269;43.568;22.244;2023-04-06T04:52:34;32.45;;;29.13;;
59458;SDS011;45269;43.568;22.244;2023-04-06T04:54:59;28.23;;;25.38;;
59458;SDS011;45269;43.568;22.244;2023-04-06T04:57:25;33.03;;;29.58;;
59458;SDS011;45269;43.568;22.244;2023-04-06T04:59:50;31.60;;;28.02;;
59458;SDS011;45269;43.568;22.244;2023-04-06T05:02:16;33.40;;;29.80;;
59458;SDS011;45269;43.568;22.244;2023-04-06T05:04:41;30.83;;;27.73;;
59458;SDS011;45269;43.568;22.244;2023-04-06T05:07:07;33.50;;;30.20;;
59458;SDS011;45269;43.568;22.244;2023-04-06T05:09:33;56.17;;;48.10;;
59458;SDS011;45269;43.568;22.244;2023-04-06T05:11:58;34.28;;;30.63;;
59458;SDS011;45269;43.568;22.244;2023-04-06T05:14:24;57.65;;;47.75;;
59458;SDS011;45269;43.568;22.244;2023-04-06T05:16:50;36.88;;;32.90;;
59458;SDS011;45269;43.568;22.244;2023-04-06T05:19:15;35.85;;;27.70;;
59458;SDS011;45269;43.568;22.244;2023-04-06T05:21:41;34.95;;;29.20;;
59458;SDS011;45269;43.568;22.244;2023-04-06T05:24:06;40.08;;;31.02;;
59458;SDS011;45269;43.568;22.244;2023-04-06T05:26:32;28.65;;;25.70;;
59458;SDS011;45269;43.568;22.244;2023-04-06T05:28:57;28.42;;;25.38;;
59458;SDS011;45269;43.568;22.244;2023-04-06T05:31:22;48.47;;;36.58;;
59458;SDS011;45269;43.568;22.244;2023-04-06T05:33:48;52.13;;;44.70;;
59458;SDS011;45269;43.568;22.244;2023-04-06T05:36:13;55.08;;;47.03;;
59458;SDS011;45269;43.568;22.244;2023-04-06T05:38:39;51.47;;;45.80;;
59458;SDS011;45269;43.568;22.244;2023-04-06T05:41:05;33.25;;;29.52;;
59458;SDS011;45269;43.568;22.244;2023-04-06T05:43:30;48.10;;;42.10;;
59458;SDS011;45269;43.568;22.244;2023-04-06T05:45:55;52.90;;;46.30;;
59458;SDS011;45269;43.568;22.244;2023-04-06T05:48:21;40.22;;;35.85;;
59458;SDS011;45269;43.568;22.244;2023-04-06T05:50:48;47.50;;;40.88;;
59458;SDS011;45269;43.568;22.244;2023-04-06T05:53:13;42.65;;;33.05;;
59458;SDS011;45269;43.568;22.244;2023-04-06T05:55:38;30.45;;;27.25;;
59458;SDS011;45269;43.568;22.244;2023-04-06T05:58:03;31.25;;;27.77;;
59458;SDS011;45269;43.568;22.244;2023-04-06T06:00:29;52.60;;;46.75;;
59458;SDS011;45269;43.568;22.244;2023-04-06T06:02:54;53.55;;;45.88;;
59458;SDS011;45269;43.568;22.244;2023-04-06T06:05:20;60.85;;;47.00;;
59458;SDS011;45269;43.568;22.244;2023-04-06T06:07:45;62.13;;;47.17;;
59458;SDS011;45269;43.568;22.244;2023-04-06T06:10:11;68.70;;;60.38;;
59458;SDS011;45269;43.568;22.244;2023-04-06T06:12:36;32.42;;;28.98;;
59458;SDS011;45269;43.568;22.244;2023-04-06T06:15:01;36.65;;;31.73;;
59458;SDS011;45269;43.568;22.244;2023-04-06T06:17:27;29.90;;;24.13;;
59458;SDS011;45269;43.568;22.244;2023-04-06T06:19:52;29.85;;;26.65;;
59458;SDS011;45269;43.568;22.244;2023-04-06T06:22:17;37.15;;;29.95;;
59458;SDS011;45269;43.568;22.244;2023-04-06T06:24:43;48.72;;;39.05;;
59458;SDS011;45269;43.568;22.244;2023-04-06T06:27:08;47.55;;;37.92;;
59458;SDS011;45269;43.568;22.244;2023-04-06T06:29:33;31.65;;;26.85;;
59458;SDS011;45269;43.568;22.244;2023-04-06T06:31:59;26.25;;;22.98;;
59458;SDS011;45269;43.568;22.244;2023-04-06T06:34:24;27.90;;;25.00;;
59458;SDS011;45269;43.568;22.244;2023-04-06T06:36:50;24.90;;;21.98;;
59458;SDS011;45269;43.568;22.244;2023-04-06T06:39:16;28.73;;;25.73;;
59458;SDS011;45269;43.568;22.244;2023-04-06T06:41:41;27.33;;;24.42;;
59458;SDS011;45269;43.568;22.244;2023-04-06T06:44:07;26.08;;;21.77;;
59458;SDS011;45269;43.568;22.244;2023-04-06T06:46:32;26.50;;;23.65;;
59458;SDS011;45269;43.568;22.244;2023-04-06T06:48:58;26.05;;;23.30;;
59458;SDS011;45269;43.568;22.244;2023-04-06T06:51:23;35.70;;;31.20;;
59458;SDS011;45269;43.568;22.244;2023-04-06T06:53:49;43.85;;;35.28;;
59458;SDS011;45269;43.568;22.244;2023-04-06T06:56:14;37.88;;;32.45;;
59458;SDS011;45269;43.568;22.244;2023-04-06T06:58:39;36.85;;;32.95;;
59458;SDS011;45269;43.568;22.244;2023-04-06T07:01:04;47.60;;;42.60;;
59458;SDS011;45269;43.568;22.244;2023-04-06T07:03:30;28.95;;;26.13;;
59458;SDS011;45269;43.568;22.244;2023-04-06T07:05:56;30.48;;;27.20;;
59458;SDS011;45269;43.568;22.244;2023-04-06T07:08:21;33.88;;;30.27;;
59458;SDS011;45269;43.568;22.244;2023-04-06T07:10:47;28.02;;;25.17;;
59458;SDS011;45269;43.568;22.244;2023-04-06T07:13:13;51.13;;;43.92;;
59458;SDS011;45269;43.568;22.244;2023-04-06T07:15:43;37.00;;;33.08;;
59458;SDS011;45269;43.568;22.244;2023-04-06T07:18:08;31.23;;;28.00;;
59458;SDS011;45269;43.568;22.244;2023-04-06T07:20:33;26.13;;;23.40;;
59458;SDS011;45269;43.568;22.244;2023-04-06T07:22:59;37.35;;;33.35;;
59458;SDS011;45269;43.568;22.244;2023-04-06T07:25:24;24.67;;;22.08;;
59458;SDS011;45269;43.568;22.244;2023-04-06T07:27:49;26.13;;;23.50;;
59458;SDS011;45269;43.568;22.244;2023-04-06T07:30:15;22.25;;;20.05;;
59458;SDS011;45269;43.568;22.244;2023-04-06T07:32:40;22.58;;;20.27;;
59458;SDS011;45269;43.568;22.244;2023-04-06T07:35:06;31.38;;;28.00;;
59458;SDS011;45269;43.568;22.244;2023-04-06T07:37:31;28.05;;;23.13;;
59458;SDS011;45269;43.568;22.244;2023-04-06T07:39:56;26.48;;;23.48;;
59458;SDS011;45269;43.568;22.244;2023-04-06T07:42:22;28.02;;;23.25;;
59458;SDS011;45269;43.568;22.244;2023-04-06T07:44:47;32.00;;;24.88;;
59458;SDS011;45269;43.568;22.244;2023-04-06T07:47:13;25.70;;;22.90;;
59458;SDS011;45269;43.568;22.244;2023-04-06T07:49:38;24.98;;;22.27;;
59458;SDS011;45269;43.568;22.244;2023-04-06T07:52:03;29.05;;;24.05;;
59458;SDS011;45269;43.568;22.244;2023-04-06T07:54:29;25.52;;;22.75;;
59458;SDS011;45269;43.568;22.244;2023-04-06T07:56:54;22.13;;;19.77;;
59458;SDS011;45269;43.568;22.244;2023-04-06T07:59:19;20.58;;;18.48;;
59458;SDS011;45269;43.568;22.244;2023-04-06T08:01:45;23.83;;;19.33;;
59458;SDS011;45269;43.568;22.244;2023-04-06T08:04:10;20.80;;;18.58;;
59458;SDS011;45269;43.568;22.244;2023-04-06T08:06:35;20.73;;;18.35;;
59458;SDS011;45269;43.568;22.244;2023-04-06T08:09:01;23.33;;;21.00;;
59458;SDS011;45269;43.568;22.244;2023-04-06T08:11:27;21.02;;;18.35;;
59458;SDS011;45269;43.568;22.244;2023-04-06T08:13:53;23.50;;;20.42;;
59458;SDS011;45269;43.568;22.244;2023-04-06T08:16:18;25.08;;;20.88;;
59458;SDS011;45269;43.568;22.244;2023-04-06T08:18:44;22.80;;;20.30;;
59458;SDS011;45269;43.568;22.244;2023-04-06T08:21:09;23.05;;;20.02;;
59458;SDS011;45269;43.568;22.244;2023-04-06T08:23:35;24.90;;;22.05;;
59458;SDS011;45269;43.568;22.244;2023-04-06T08:26:00;25.90;;;22.45;;
59458;SDS011;45269;43.568;22.244;2023-04-06T08:28:25;23.92;;;19.08;;
59458;SDS011;45269;43.568;22.244;2023-04-06T08:30:51;41.88;;;30.85;;
59458;SDS011;45269;43.568;22.244;2023-04-06T08:33:16;23.60;;;20.70;;
59458;SDS011;45269;43.568;22.244;2023-04-06T08:35:41;24.55;;;21.73;;
59458;SDS011;45269;43.568;22.244;2023-04-06T08:38:07;31.48;;;27.58;;
59458;SDS011;45269;43.568;22.244;2023-04-06T08:40:36;26.88;;;23.98;;
59458;SDS011;45269;43.568;22.244;2023-04-06T08:43:01;26.93;;;23.63;;
59458;SDS011;45269;43.568;22.244;2023-04-06T08:45:28;19.98;;;18.05;;
59458;SDS011;45269;43.568;22.244;2023-04-06T08:47:54;26.00;;;22.55;;
59458;SDS011;45269;43.568;22.244;2023-04-06T08:50:20;20.48;;;17.90;;
59458;SDS011;45269;43.568;22.244;2023-04-06T08:52:47;17.25;;;15.40;;
59458;SDS011;45269;43.568;22.244;2023-04-06T08:55:12;17.92;;;16.08;;
59458;SDS011;45269;43.568;22.244;2023-04-06T08:57:37;22.20;;;19.33;;
59458;SDS011;45269;43.568;22.244;2023-04-06T09:00:04;21.33;;;18.33;;
59458;SDS011;45269;43.568;22.244;2023-04-06T09:02:31;21.67;;;18.45;;
59458;SDS011;45269;43.568;22.244;2023-04-06T09:04:56;23.63;;;19.30;;
59458;SDS011;45269;43.568;22.244;2023-04-06T09:07:22;21.88;;;18.17;;
59458;SDS011;45269;43.568;22.244;2023-04-06T09:09:48;22.17;;;16.10;;
59458;SDS011;45269;43.568;22.244;2023-04-06T09:12:24;21.65;;;19.30;;
59458;SDS011;45269;43.568;22.244;2023-04-06T09:14:49;21.35;;;18.10;;
59458;SDS011;45269;43.568;22.244;2023-04-06T09:17:24;17.42;;;15.18;;
59458;SDS011;45269;43.568;22.244;2023-04-06T09:19:50;21.70;;;19.40;;
59458;SDS011;45269;43.568;22.244;2023-04-06T09:22:15;28.17;;;24.77;;
59458;SDS011;45269;43.568;22.244;2023-04-06T09:24:45;21.92;;;18.23;;
59458;SDS011;45269;43.568;22.244;2023-04-06T09:27:10;23.17;;;20.88;;
59458;SDS011;45269;43.568;22.244;2023-04-06T09:29:36;78.20;;;55.35;;
59458;SDS011;45269;43.568;22.244;2023-04-06T09:32:05;37.72;;;29.17;;
59458;SDS011;45269;43.568;22.244;2023-04-06T09:34:31;47.92;;;36.70;;
59458;SDS011;45269;43.568;22.244;2023-04-06T09:36:56;23.25;;;20.55;;
59458;SDS011;45269;43.568;22.244;2023-04-06T09:39:22;27.50;;;24.52;;
59458;SDS011;45269;43.568;22.244;2023-04-06T09:41:50;26.63;;;22.65;;
59458;SDS011;45269;43.568;22.244;2023-04-06T09:44:15;25.00;;;19.50;;
59458;SDS011;45269;43.568;22.244;2023-04-06T09:46:41;30.35;;;22.13;;
59458;SDS011;45269;43.568;22.244;2023-04-06T09:49:08;20.85;;;17.35;;
59458;SDS011;45269;43.568;22.244;2023-04-06T09:51:38;16.77;;;14.85;;
59458;SDS011;45269;43.568;22.244;2023-04-06T09:54:04;18.10;;;16.20;;
59458;SDS011;45269;43.568;22.244;2023-04-06T09:56:31;15.18;;;13.68;;
59458;SDS011;45269;43.568;22.244;2023-04-06T09:59:01;18.65;;;16.08;;
59458;SDS011;45269;43.568;22.244;2023-04-06T10:01:28;20.33;;;18.02;;
59458;SDS011;45269;43.568;22.244;2023-04-06T10:03:56;29.88;;;21.55;;
59458;SDS011;45269;43.568;22.244;2023-04-06T10:06:26;24.02;;;16.50;;
59458;SDS011;45269;43.568;22.244;2023-04-06T10:08:52;21.77;;;18.33;;
59458;SDS011;45269;43.568;22.244;2023-04-06T10:11:20;19.83;;;16.20;;
59458;SDS011;45269;43.568;22.244;2023-04-06T10:13:46;24.73;;;20.00;;
59458;SDS011;45269;43.568;22.244;2023-04-06T10:16:13;23.02;;;20.55;;
59458;SDS011;45269;43.568;22.244;2023-04-06T10:18:39;31.63;;;24.50;;
59458;SDS011;45269;43.568;22.244;2023-04-06T10:21:08;24.98;;;19.00;;
59458;SDS011;45269;43.568;22.244;2023-04-06T10:23:40;24.25;;;20.50;;
59458;SDS011;45269;43.568;22.244;2023-04-06T10:26:12;20.67;;;18.55;;
59458;SDS011;45269;43.568;22.244;2023-04-06T10:28:37;20.48;;;17.77;;
59458;SDS011;45269;43.568;22.244;2023-04-06T10:31:05;23.92;;;20.45;;
59458;SDS011;45269;43.568;22.244;2023-04-06T10:33:31;24.30;;;19.25;;
59458;SDS011;45269;43.568;22.244;2023-04-06T10:35:57;29.45;;;22.55;;
59458;SDS011;45269;43.568;22.244;2023-04-06T10:38:43;22.27;;;19.00;;
59458;SDS011;45269;43.568;22.244;2023-04-06T10:41:08;18.00;;;16.10;;
59458;SDS011;45269;43.568;22.244;2023-04-06T10:43:35;21.90;;;18.55;;
59458;SDS011;45269;43.568;22.244;2023-04-06T10:46:01;21.42;;;19.25;;
59458;SDS011;45269;43.568;22.244;2023-04-06T10:48:39;22.88;;;20.15;;
59458;SDS011;45269;43.568;22.244;2023-04-06T10:51:24;19.80;;;17.70;;
59458;SDS011;45269;43.568;22.244;2023-04-06T10:53:52;19.02;;;15.85;;
59458;SDS011;45269;43.568;22.244;2023-04-06T10:56:18;18.73;;;16.70;;
59458;SDS011;45269;43.568;22.244;2023-04-06T10:58:49;18.52;;;16.58;;
59458;SDS011;45269;43.568;22.244;2023-04-06T11:01:16;19.05;;;15.95;;
59458;SDS011;45269;43.568;22.244;2023-04-06T11:03:42;20.58;;;17.27;;
59458;SDS011;45269;43.568;22.244;2023-04-06T11:06:08;19.35;;;15.60;;
59458;SDS011;45269;43.568;22.244;2023-04-06T11:08:33;21.45;;;19.25;;
59458;SDS011;45269;43.568;22.244;2023-04-06T11:11:07;18.05;;;16.02;;
59458;SDS011;45269;43.568;22.244;2023-04-06T11:13:46;25.75;;;21.65;;
59458;SDS011;45269;43.568;22.244;2023-04-06T11:16:21;15.90;;;14.20;;
59458;SDS011;45269;43.568;22.244;2023-04-06T11:18:50;18.35;;;16.45;;
59458;SDS011;45269;43.568;22.244;2023-04-06T11:21:16;19.02;;;16.95;;
59458;SDS011;45269;43.568;22.244;2023-04-06T11:23:42;17.52;;;15.73;;
59458;SDS011;45269;43.568;22.244;2023-04-06T11:26:11;19.13;;;17.20;;
59458;SDS011;45269;43.568;22.244;2023-04-06T11:28:36;26.83;;;20.60;;
59458;SDS011;45269;43.568;22.244;2023-04-06T11:31:02;28.02;;;22.40;;
59458;SDS011;45269;43.568;22.244;2023-04-06T11:33:27;28.45;;;24.67;;
59458;SDS011;45269;43.568;22.244;2023-04-06T11:35:52;22.15;;;19.65;;
59458;SDS011;45269;43.568;22.244;2023-04-06T11:38:21;21.52;;;18.10;;
59458;SDS011;45269;43.568;22.244;2023-04-06T11:40:47;21.88;;;19.23;;
59458;SDS011;45269;43.568;22.244;2023-04-06T11:43:17;20.88;;;18.70;;
59458;SDS011;45269;43.568;22.244;2023-04-06T11:45:42;18.27;;;16.33;;
59458;SDS011;45269;43.568;22.244;2023-04-06T11:48:17;34.95;;;28.95;;
59458;SDS011;45269;43.568;22.244;2023-04-06T11:50:42;25.05;;;21.15;;
59458;SDS011;45269;43.568;22.244;2023-04-06T11:53:08;24.33;;;20.13;;
59458;SDS011;45269;43.568;22.244;2023-04-06T11:55:39;28.75;;;21.55;;
59458;SDS011;45269;43.568;22.244;2023-04-06T11:58:05;32.22;;;25.92;;
59458;SDS011;45269;43.568;22.244;2023-04-06T12:00:31;21.95;;;18.45;;
59458;SDS011;45269;43.568;22.244;2023-04-06T12:03:00;36.33;;;29.48;;
59458;SDS011;45269;43.568;22.244;2023-04-06T12:05:25;31.13;;;26.58;;
59458;SDS011;45269;43.568;22.244;2023-04-06T12:07:51;31.70;;;26.42;;
59458;SDS011;45269;43.568;22.244;2023-04-06T12:10:16;24.20;;;20.67;;
59458;SDS011;45269;43.568;22.244;2023-04-06T12:12:41;32.40;;;25.08;;
59458;SDS011;45269;43.568;22.244;2023-04-06T12:15:07;29.75;;;24.33;;
59458;SDS011;45269;43.568;22.244;2023-04-06T12:17:32;33.63;;;24.98;;
59458;SDS011;45269;43.568;22.244;2023-04-06T12:19:58;32.95;;;25.25;;
59458;SDS011;45269;43.568;22.244;2023-04-06T12:22:23;32.22;;;23.50;;
59458;SDS011;45269;43.568;22.244;2023-04-06T12:24:48;27.55;;;22.17;;
59458;SDS011;45269;43.568;22.244;2023-04-06T12:27:13;24.90;;;20.45;;
59458;SDS011;45269;43.568;22.244;2023-04-06T12:29:39;24.35;;;19.38;;
59458;SDS011;45269;43.568;22.244;2023-04-06T12:32:04;27.73;;;22.02;;
59458;SDS011;45269;43.568;22.244;2023-04-06T12:34:31;30.35;;;23.83;;
59458;SDS011;45269;43.568;22.244;2023-04-06T12:36:56;32.47;;;26.83;;
59458;SDS011;45269;43.568;22.244;2023-04-06T12:39:22;26.38;;;21.05;;
59458;SDS011;45269;43.568;22.244;2023-04-06T12:41:47;18.63;;;15.85;;
59458;SDS011;45269;43.568;22.244;2023-04-06T12:44:12;19.50;;;17.50;;
59458;SDS011;45269;43.568;22.244;2023-04-06T12:46:38;30.00;;;22.88;;
59458;SDS011;45269;43.568;22.244;2023-04-06T12:49:03;25.95;;;21.42;;
59458;SDS011;45269;43.568;22.244;2023-04-06T12:51:29;26.42;;;22.92;;
59458;SDS011;45269;43.568;22.244;2023-04-06T12:53:54;18.48;;;16.08;;
59458;SDS011;45269;43.568;22.244;2023-04-06T12:56:19;23.63;;;20.88;;
59458;SDS011;45269;43.568;22.244;2023-04-06T12:58:47;21.80;;;19.38;;
59458;SDS011;45269;43.568;22.244;2023-04-06T13:01:13;18.92;;;16.92;;
59458;SDS011;45269;43.568;22.244;2023-04-06T13:03:38;23.65;;;21.17;;
59458;SDS011;45269;43.568;22.244;2023-04-06T13:06:04;36.70;;;30.85;;
59458;SDS011;45269;43.568;22.244;2023-04-06T13:08:29;22.98;;;19.60;;
59458;SDS011;45269;43.568;22.244;2023-04-06T13:10:54;37.40;;;29.85;;
59458;SDS011;45269;43.568;22.244;2023-04-06T13:13:22;22.83;;;19.77;;
59458;SDS011;45269;43.568;22.244;2023-04-06T13:15:48;19.77;;;17.63;;
59458;SDS011;45269;43.568;22.244;2023-04-06T13:18:13;22.45;;;18.02;;
59458;SDS011;45269;43.568;22.244;2023-04-06T13:20:38;37.45;;;30.23;;
59458;SDS011;45269;43.568;22.244;2023-04-06T13:23:04;29.25;;;21.80;;
59458;SDS011;45269;43.568;22.244;2023-04-06T13:25:30;21.05;;;18.80;;
59458;SDS011;45269;43.568;22.244;2023-04-06T13:27:55;21.80;;;16.98;;
59458;SDS011;45269;43.568;22.244;2023-04-06T13:30:21;26.30;;;20.17;;
59458;SDS011;45269;43.568;22.244;2023-04-06T13:32:46;28.88;;;23.90;;
59458;SDS011;45269;43.568;22.244;2023-04-06T13:35:11;24.77;;;19.90;;
59458;SDS011;45269;43.568;22.244;2023-04-06T13:37:37;25.60;;;19.67;;
59458;SDS011;45269;43.568;22.244;2023-04-06T13:40:02;25.33;;;21.08;;
59458;SDS011;45269;43.568;22.244;2023-04-06T13:42:29;26.73;;;21.10;;
59458;SDS011;45269;43.568;22.244;2023-04-06T13:44:55;28.27;;;21.27;;
59458;SDS011;45269;43.568;22.244;2023-04-06T13:47:20;51.05;;;39.05;;
59458;SDS011;45269;43.568;22.244;2023-04-06T13:49:51;35.38;;;28.83;;
59458;SDS011;45269;43.568;22.244;2023-04-06T13:52:18;26.88;;;21.90;;
59458;SDS011;45269;43.568;22.244;2023-04-06T13:54:43;28.05;;;23.23;;
59458;SDS011;45269;43.568;22.244;2023-04-06T13:57:08;22.45;;;19.20;;
59458;SDS011;45269;43.568;22.244;2023-04-06T13:59:37;32.13;;;25.55;;
59458;SDS011;45269;43.568;22.244;2023-04-06T14:02:02;47.95;;;36.75;;